LFPO 171030Z 23018KT 9999 FEW017 11/07 Q1018 NOSIG

ElémentsDécodage
LFPO Station météo située sur l'aérodrome de PARIS Orly
171030Z émis le 17 du mois à 10h30 UTC
23018KT vent du 230°, 18 noeuds
9999 visibilité horizontale supérieure à 10 Km
FEW017 nuages rares (1/8 à 2/8) à 1700 pieds
11/07 température 11°C, point de rosée 07°C
 soit une humidité relative de 76%
Q1018 la pression au niveau de la mer (QNH) est de 1018 hPa
NOSIG Pas de changement significatif prévu au cours des deux heures suivant l'heure de l'observation